createdAt,value
2023-01-29T00:00:20.398Z,3.92
2023-01-29T00:02:48.687Z,4.43
2023-01-29T00:05:27.894Z,7.43
2023-01-29T00:07:59.015Z,6.70
2023-01-29T00:10:27.767Z,3.90
2023-01-29T00:12:56.167Z,6.70
2023-01-29T00:15:25.758Z,3.58
2023-01-29T00:17:53.976Z,7.82
2023-01-29T00:20:24.801Z,4.32
2023-01-29T00:22:53.057Z,3.78
2023-01-29T00:25:21.891Z,3.63
2023-01-29T00:27:50.161Z,3.60
2023-01-29T00:30:19.966Z,4.60
2023-01-29T00:32:49.773Z,4.47
2023-01-29T00:35:20.172Z,5.78
2023-01-29T00:37:48.388Z,3.25
2023-01-29T00:40:17.317Z,4.90
2023-01-29T00:43:04.499Z,3.58
2023-01-29T00:45:33.634Z,3.78
2023-01-29T00:48:06.913Z,6.00
2023-01-29T00:50:35.150Z,3.15
2023-01-29T00:53:03.329Z,3.53
2023-01-29T00:55:33.558Z,4.63
2023-01-29T00:58:01.852Z,4.80
2023-01-29T01:00:29.992Z,2.60
2023-01-29T01:03:05.990Z,3.15
2023-01-29T01:05:36.876Z,2.88
2023-01-29T01:08:25.843Z,3.35
2023-01-29T01:10:59.947Z,4.63
2023-01-29T01:13:28.420Z,2.65
2023-01-29T01:15:56.712Z,3.72
2023-01-29T01:18:25.051Z,3.13
2023-01-29T01:21:00.051Z,2.70
2023-01-29T01:23:28.357Z,3.70
2023-01-29T01:25:56.775Z,3.58
2023-01-29T01:28:25.059Z,5.40
2023-01-29T01:30:53.444Z,3.92
2023-01-29T01:33:24.650Z,4.30
2023-01-29T01:35:54.779Z,3.53
2023-01-29T01:38:24.539Z,3.65
2023-01-29T01:40:56.075Z,5.05
2023-01-29T01:43:24.258Z,4.05
2023-01-29T01:45:53.964Z,2.80
2023-01-29T01:48:25.413Z,3.05
2023-01-29T01:51:03.247Z,3.83
2023-01-29T01:53:38.503Z,3.10
2023-01-29T01:56:10.664Z,3.67
2023-01-29T01:58:47.185Z,4.30
2023-01-29T02:01:16.664Z,3.95
2023-01-29T02:04:09.064Z,4.82
2023-01-29T02:06:58.132Z,3.63
2023-01-29T02:09:34.955Z,3.80
2023-01-29T02:12:04.252Z,3.58
2023-01-29T02:14:34.538Z,6.15
2023-01-29T02:17:03.212Z,3.15
2023-01-29T02:19:45.434Z,4.70
2023-01-29T02:22:41.099Z,3.40
2023-01-29T02:25:28.667Z,3.35
2023-01-29T02:28:21.917Z,3.70
2023-01-29T02:31:00.102Z,4.05
2023-01-29T02:33:37.904Z,3.13
2023-01-29T02:36:17.032Z,5.22
2023-01-29T02:38:51.739Z,3.08
2023-01-29T02:41:27.914Z,6.20
2023-01-29T02:44:05.990Z,4.13
2023-01-29T02:46:38.519Z,4.38
2023-01-29T02:49:14.605Z,3.42
2023-01-29T02:51:46.193Z,7.28
2023-01-29T02:54:18.167Z,4.72
2023-01-29T02:56:53.146Z,6.10
2023-01-29T02:59:26.498Z,4.15
2023-01-29T03:01:59.123Z,3.33
2023-01-29T03:04:30.631Z,3.78
2023-01-29T03:07:04.138Z,5.80
2023-01-29T03:09:34.921Z,5.13
2023-01-29T03:12:20.087Z,5.68
2023-01-29T03:15:10.439Z,4.05
2023-01-29T03:17:48.329Z,4.10
2023-01-29T03:20:20.788Z,5.57
2023-01-29T03:22:54.911Z,6.35
2023-01-29T03:25:42.926Z,3.50
2023-01-29T03:28:31.082Z,3.63
2023-01-29T03:31:21.881Z,6.35
2023-01-29T03:34:03.968Z,4.40
2023-01-29T03:36:39.929Z,3.90
2023-01-29T03:39:11.521Z,7.40
2023-01-29T03:41:43.884Z,4.93
2023-01-29T03:44:18.293Z,3.85
2023-01-29T03:46:56.327Z,4.47
2023-01-29T03:49:34.566Z,4.82
2023-01-29T03:52:14.018Z,4.25
2023-01-29T03:54:55.200Z,4.30
2023-01-29T03:57:34.418Z,5.35
2023-01-29T04:00:10.111Z,6.57
2023-01-29T04:03:21.601Z,4.45
2023-01-29T04:06:05.548Z,5.18
2023-01-29T04:08:39.476Z,5.20
2023-01-29T04:11:12.425Z,5.68
2023-01-29T04:13:41.690Z,6.32
2023-01-29T04:16:17.001Z,4.47
2023-01-29T04:18:57.261Z,4.70
2023-01-29T04:21:32.992Z,5.70
2023-01-29T04:24:01.722Z,4.68
2023-01-29T04:26:50.410Z,4.25
2023-01-29T04:29:32.650Z,4.78
2023-01-29T04:32:12.382Z,8.10
2023-01-29T04:35:00.839Z,4.63
2023-01-29T04:37:37.901Z,5.00
2023-01-29T04:40:16.887Z,5.82
2023-01-29T04:42:52.448Z,5.30
2023-01-29T04:45:29.116Z,4.18
2023-01-29T04:48:08.547Z,4.97
2023-01-29T04:50:41.532Z,6.35
2023-01-29T04:53:17.007Z,3.03
2023-01-29T04:55:50.902Z,3.83
2023-01-29T04:58:27.873Z,6.20
2023-01-29T05:00:56.981Z,5.68
2023-01-29T05:03:27.843Z,3.00
2023-01-29T05:05:59.532Z,4.10
2023-01-29T05:08:30.205Z,5.45
2023-01-29T05:11:02.215Z,3.60
2023-01-29T05:13:33.272Z,6.28
2023-01-29T05:16:06.593Z,4.03
2023-01-29T05:18:35.565Z,5.15
2023-01-29T05:21:09.431Z,3.78
2023-01-29T05:23:39.895Z,5.78
2023-01-29T05:26:08.274Z,3.75
2023-01-29T05:28:35.436Z,3.50
2023-01-29T05:31:03.796Z,3.90
2023-01-29T05:33:33.013Z,6.57
2023-01-29T05:36:01.343Z,4.05
2023-01-29T05:38:30.943Z,4.95
2023-01-29T05:41:00.154Z,6.38
2023-01-29T05:43:28.352Z,4.18
2023-01-29T05:45:58.101Z,5.28
2023-01-29T05:48:27.690Z,6.78
2023-01-29T05:50:56.153Z,3.67
2023-01-29T05:53:24.364Z,6.22
2023-01-29T05:55:53.881Z,6.53
2023-01-29T05:58:22.159Z,6.38
2023-01-29T06:00:50.754Z,6.00
2023-01-29T06:03:19.031Z,5.15
2023-01-29T06:05:47.291Z,7.00
2023-01-29T06:08:15.492Z,4.72
2023-01-29T06:10:43.683Z,7.35
2023-01-29T06:13:13.265Z,6.40
2023-01-29T06:15:41.887Z,6.57
2023-01-29T06:18:10.089Z,6.00
2023-01-29T06:20:41.121Z,7.57
2023-01-29T06:23:09.329Z,5.63
2023-01-29T06:25:37.540Z,8.32
2023-01-29T06:28:06.143Z,6.28
2023-01-29T06:30:37.664Z,5.07
2023-01-29T06:33:05.970Z,5.13
2023-01-29T06:35:34.204Z,4.90
2023-01-29T06:38:04.706Z,6.32
2023-01-29T06:40:32.952Z,6.30
2023-01-29T06:43:01.944Z,5.20
2023-01-29T06:45:30.202Z,7.78
2023-01-29T06:48:01.408Z,5.75
2023-01-29T06:50:32.527Z,5.20
2023-01-29T06:53:00.846Z,4.75
2023-01-29T06:55:29.162Z,8.80
2023-01-29T06:57:57.416Z,7.20
2023-01-29T07:00:27.002Z,4.95
2023-01-29T07:02:55.350Z,4.38
2023-01-29T07:05:27.883Z,8.25
2023-01-29T07:07:56.204Z,4.05
2023-01-29T07:10:27.724Z,5.90
2023-01-29T07:13:01.671Z,5.40
2023-01-29T07:15:29.935Z,7.00
2023-01-29T07:18:02.394Z,5.93
2023-01-29T07:20:32.669Z,8.80
2023-01-29T07:23:03.980Z,7.32
2023-01-29T07:25:32.345Z,9.05
2023-01-29T07:28:03.162Z,5.22
2023-01-29T07:30:33.244Z,8.73
2023-01-29T07:33:07.099Z,6.72
2023-01-29T07:35:40.491Z,5.30
2023-01-29T07:38:09.505Z,5.28
2023-01-29T07:40:38.232Z,4.50
2023-01-29T07:43:08.342Z,6.47
2023-01-29T07:45:40.546Z,6.85
2023-01-29T07:48:12.199Z,4.72
2023-01-29T07:50:42.018Z,7.13
2023-01-29T07:53:14.724Z,6.72
2023-01-29T07:55:45.085Z,6.40
2023-01-29T07:58:13.721Z,7.10
2023-01-29T08:00:42.003Z,6.18
2023-01-29T08:03:16.110Z,8.20
2023-01-29T08:05:46.102Z,5.13
2023-01-29T08:08:14.953Z,7.75
2023-01-29T08:10:43.345Z,6.13
2023-01-29T08:13:11.508Z,5.40
2023-01-29T08:15:39.742Z,5.97
2023-01-29T08:18:08.259Z,7.78
2023-01-29T08:20:38.706Z,6.80
2023-01-29T08:23:09.460Z,7.05
2023-01-29T08:25:38.309Z,6.70
2023-01-29T08:28:06.608Z,7.40
2023-01-29T08:30:36.561Z,5.95
2023-01-29T08:33:05.936Z,8.88
2023-01-29T08:35:34.335Z,6.20
2023-01-29T08:38:04.375Z,6.50
2023-01-29T08:40:36.041Z,5.53
2023-01-29T08:43:08.686Z,5.85
2023-01-29T08:45:42.584Z,5.45
2023-01-29T08:48:11.441Z,5.32
2023-01-29T08:50:39.958Z,6.78
2023-01-29T08:53:09.702Z,5.10
2023-01-29T08:55:40.121Z,6.97
2023-01-29T08:58:12.836Z,4.95
2023-01-29T09:00:41.143Z,7.72
2023-01-29T09:03:10.073Z,7.82
2023-01-29T09:05:39.301Z,4.20
2023-01-29T09:08:08.685Z,5.32
2023-01-29T09:10:38.605Z,9.20
2023-01-29T09:13:06.799Z,6.72
2023-01-29T09:15:35.006Z,8.45
2023-01-29T09:18:05.416Z,5.05
2023-01-29T09:20:33.909Z,5.90
2023-01-29T09:23:06.317Z,6.38
2023-01-29T09:25:34.512Z,7.30
2023-01-29T09:28:04.417Z,7.05
2023-01-29T09:30:34.666Z,5.55
2023-01-29T09:33:03.030Z,6.03
2023-01-29T09:35:33.716Z,5.90
2023-01-29T09:38:06.991Z,3.60
2023-01-29T09:40:42.162Z,5.85
2023-01-29T09:43:17.882Z,8.55
2023-01-29T09:45:54.456Z,5.32
2023-01-29T09:48:27.392Z,6.65
2023-01-29T09:50:56.942Z,5.80
2023-01-29T09:53:32.619Z,7.30
2023-01-29T09:56:04.225Z,5.63
2023-01-29T09:58:37.137Z,5.30
2023-01-29T10:01:15.124Z,5.18
2023-01-29T10:03:56.303Z,4.53
2023-01-29T10:06:41.068Z,5.20
2023-01-29T10:09:46.356Z,8.52
2023-01-29T10:12:30.861Z,5.40
2023-01-29T10:15:07.185Z,6.50
2023-01-29T10:18:02.193Z,5.88
2023-01-29T10:20:43.757Z,7.13
2023-01-29T10:23:22.808Z,8.40
2023-01-29T10:25:51.470Z,5.75
2023-01-29T10:28:21.906Z,7.88
2023-01-29T10:30:55.893Z,7.60
2023-01-29T10:33:48.769Z,4.72
2023-01-29T10:36:23.925Z,8.30
2023-01-29T10:38:52.856Z,6.35
2023-01-29T10:41:39.259Z,5.78
2023-01-29T10:44:32.284Z,7.25
2023-01-29T10:47:25.755Z,7.85
2023-01-29T10:50:26.731Z,4.80
2023-01-29T10:53:17.536Z,4.35
2023-01-29T10:55:55.004Z,5.35
2023-01-29T10:58:31.932Z,6.90
2023-01-29T11:01:00.446Z,6.28
2023-01-29T11:03:31.959Z,6.78
2023-01-29T11:06:10.365Z,7.10
2023-01-29T11:08:44.649Z,5.70
2023-01-29T11:11:17.237Z,8.73
2023-01-29T11:13:52.053Z,6.07
2023-01-29T11:16:20.398Z,6.10
2023-01-29T11:18:55.930Z,7.60
2023-01-29T11:21:28.203Z,5.78
2023-01-29T11:24:15.419Z,4.60
2023-01-29T11:26:45.313Z,5.90
2023-01-29T11:29:42.767Z,5.45
2023-01-29T11:32:15.788Z,6.93
2023-01-29T11:35:06.408Z,10.60
2023-01-29T11:37:37.263Z,7.57
2023-01-29T11:40:36.355Z,5.15
2023-01-29T11:43:19.967Z,6.20
2023-01-29T11:45:50.352Z,4.78
2023-01-29T11:48:21.020Z,5.55
2023-01-29T11:50:57.190Z,8.48
2023-01-29T11:53:43.941Z,7.75
2023-01-29T11:56:21.809Z,5.22
2023-01-29T11:58:50.996Z,7.32
2023-01-29T12:01:30.316Z,6.63
2023-01-29T12:03:58.771Z,6.22
2023-01-29T12:06:35.027Z,6.72
2023-01-29T12:09:10.311Z,6.13
2023-01-29T12:11:38.615Z,6.22
2023-01-29T12:14:23.303Z,6.38
2023-01-29T12:16:56.079Z,7.90
2023-01-29T12:19:35.874Z,7.45
2023-01-29T12:22:11.818Z,8.40
2023-01-29T12:24:45.939Z,6.82
2023-01-29T12:27:20.101Z,8.48
2023-01-29T12:29:58.017Z,8.70
2023-01-29T12:32:33.792Z,6.47
2023-01-29T12:35:07.503Z,5.93
2023-01-29T12:37:46.073Z,8.50
2023-01-29T12:40:16.926Z,6.85
2023-01-29T12:42:50.891Z,9.77
2023-01-29T12:45:20.542Z,6.07
2023-01-29T12:47:51.921Z,8.80
2023-01-29T12:50:23.808Z,10.55
2023-01-29T12:52:57.562Z,6.53
2023-01-29T12:55:29.111Z,6.35
2023-01-29T12:57:59.895Z,6.47
2023-01-29T13:00:31.369Z,9.10
2023-01-29T13:03:04.947Z,6.35
2023-01-29T13:05:42.114Z,9.23
2023-01-29T13:08:16.002Z,6.85
2023-01-29T13:10:46.778Z,8.20
2023-01-29T13:13:23.160Z,9.38
2023-01-29T13:15:53.515Z,9.85
2023-01-29T13:18:41.729Z,15.00
2023-01-29T13:21:16.290Z,7.72
2023-01-29T13:23:52.160Z,7.43
2023-01-29T13:26:21.987Z,9.02
2023-01-29T13:28:52.310Z,8.65
2023-01-29T13:31:31.553Z,10.43
2023-01-29T13:34:10.958Z,9.57
2023-01-29T13:36:51.524Z,11.27
2023-01-29T13:39:26.878Z,6.72
2023-01-29T13:41:57.049Z,9.13
2023-01-29T13:44:29.246Z,10.18
2023-01-29T13:46:59.921Z,9.20
2023-01-29T13:49:35.552Z,7.20
2023-01-29T13:52:31.760Z,9.32
2023-01-29T13:55:04.712Z,10.57
2023-01-29T13:57:49.331Z,10.95
2023-01-29T14:00:51.460Z,12.15
2023-01-29T14:04:04.812Z,10.57
2023-01-29T14:06:48.348Z,7.63
2023-01-29T14:09:59.696Z,6.03
2023-01-29T14:12:38.378Z,7.70
2023-01-29T14:15:27.464Z,9.50
2023-01-29T14:18:16.332Z,9.25
2023-01-29T14:21:00.899Z,9.10
2023-01-29T14:23:41.648Z,11.30
2023-01-29T14:26:27.379Z,9.77
2023-01-29T14:29:01.361Z,9.05
2023-01-29T14:31:38.688Z,9.10
2023-01-29T14:34:15.563Z,9.10
2023-01-29T14:36:46.125Z,13.97
2023-01-29T14:39:40.543Z,11.25
2023-01-29T14:42:20.627Z,12.82
2023-01-29T14:45:11.607Z,11.75
2023-01-29T14:47:57.615Z,9.18
2023-01-29T14:50:59.271Z,8.95
2023-01-29T14:53:36.502Z,9.60
2023-01-29T14:56:11.685Z,12.98
2023-01-29T14:58:45.465Z,10.57
2023-01-29T15:01:23.342Z,9.10
2023-01-29T15:03:54.695Z,5.97
2023-01-29T15:06:31.702Z,11.45
2023-01-29T15:09:06.652Z,8.55
2023-01-29T15:11:43.281Z,12.35
2023-01-29T15:14:24.055Z,8.05
2023-01-29T15:17:03.472Z,14.13
2023-01-29T15:19:37.159Z,15.55
2023-01-29T15:22:07.145Z,11.77
2023-01-29T15:24:35.710Z,7.28
2023-01-29T15:27:04.469Z,5.85
2023-01-29T15:29:32.856Z,8.85
2023-01-29T15:32:02.997Z,12.88
2023-01-29T15:34:31.431Z,6.00
2023-01-29T15:36:59.723Z,9.38
2023-01-29T15:39:28.502Z,11.07
2023-01-29T15:42:21.742Z,8.02
2023-01-29T15:44:50.141Z,12.45
2023-01-29T15:47:24.714Z,8.35
2023-01-29T15:49:54.088Z,9.38
2023-01-29T15:52:25.758Z,7.25
2023-01-29T15:54:56.127Z,10.07
2023-01-29T15:57:26.692Z,6.38
2023-01-29T15:59:57.374Z,8.40
2023-01-29T16:02:40.313Z,9.10
2023-01-29T16:05:14.975Z,9.95
2023-01-29T16:07:44.022Z,8.40
2023-01-29T16:10:19.164Z,9.77
2023-01-29T16:12:51.412Z,5.20
2023-01-29T16:15:32.303Z,6.93
2023-01-29T16:18:04.494Z,8.00
2023-01-29T16:20:37.236Z,10.10
2023-01-29T16:23:07.177Z,12.18
2023-01-29T16:25:39.370Z,11.23
2023-01-29T16:28:12.058Z,8.93
2023-01-29T16:30:41.524Z,10.77
2023-01-29T16:33:15.584Z,14.68
2023-01-29T16:35:44.091Z,9.90
2023-01-29T16:38:27.931Z,12.32
2023-01-29T16:41:09.399Z,8.10
2023-01-29T16:43:52.036Z,9.63
2023-01-29T16:46:28.415Z,9.20
2023-01-29T16:48:58.113Z,10.93
2023-01-29T16:51:29.592Z,12.10
2023-01-29T16:54:00.630Z,12.73
2023-01-29T16:56:32.173Z,15.25
2023-01-29T16:59:05.725Z,10.48
2023-01-29T17:01:36.771Z,11.35
2023-01-29T17:04:11.721Z,14.65
2023-01-29T17:06:42.473Z,9.90
2023-01-29T17:09:21.987Z,15.00
2023-01-29T17:11:56.032Z,9.98
2023-01-29T17:14:25.849Z,12.95
2023-01-29T17:16:57.309Z,11.90
2023-01-29T17:19:27.073Z,12.65
2023-01-29T17:21:55.252Z,9.77
2023-01-29T17:24:23.429Z,16.58
2023-01-29T17:26:52.397Z,14.60
2023-01-29T17:29:28.942Z,7.70
2023-01-29T17:32:00.011Z,9.30
2023-01-29T17:34:29.855Z,12.35
2023-01-29T17:36:58.147Z,10.75
2023-01-29T17:39:26.664Z,12.13
2023-01-29T17:41:56.515Z,11.10
2023-01-29T17:44:26.125Z,11.98
2023-01-29T17:46:54.670Z,12.07
2023-01-29T17:49:26.008Z,11.73
2023-01-29T17:51:56.960Z,14.90
2023-01-29T17:54:25.805Z,10.02
2023-01-29T17:56:54.776Z,9.00
2023-01-29T17:59:25.054Z,10.93
2023-01-29T18:01:53.459Z,11.82
2023-01-29T18:04:22.094Z,11.85
2023-01-29T18:06:52.153Z,11.50
2023-01-29T18:09:22.633Z,13.18
2023-01-29T18:11:51.579Z,9.82
2023-01-29T18:14:19.789Z,12.75
2023-01-29T18:16:48.103Z,8.77
2023-01-29T18:19:22.067Z,17.67
2023-01-29T18:21:51.228Z,9.60
2023-01-29T18:24:20.470Z,15.20
2023-01-29T18:26:51.227Z,9.43
2023-01-29T18:29:19.533Z,9.68
2023-01-29T18:31:50.159Z,10.18
2023-01-29T18:34:18.639Z,12.77
2023-01-29T18:36:47.841Z,12.32
2023-01-29T18:39:16.425Z,12.30
2023-01-29T18:41:44.689Z,11.13
2023-01-29T18:44:14.950Z,10.32
2023-01-29T18:46:43.181Z,14.02
2023-01-29T18:49:11.931Z,13.55
2023-01-29T18:51:40.097Z,13.60
2023-01-29T18:54:08.471Z,9.30
2023-01-29T18:56:36.668Z,9.77
2023-01-29T18:59:06.420Z,10.23
2023-01-29T19:01:36.328Z,15.88
2023-01-29T19:04:04.599Z,10.82
2023-01-29T19:06:35.689Z,6.65
2023-01-29T19:09:05.655Z,9.98
2023-01-29T19:11:33.853Z,10.52
2023-01-29T19:14:02.128Z,14.68
2023-01-29T19:16:30.355Z,8.73
2023-01-29T19:18:59.953Z,13.68
2023-01-29T19:21:28.509Z,16.75
2023-01-29T19:23:56.962Z,14.55
2023-01-29T19:26:25.172Z,11.65
2023-01-29T19:28:53.400Z,12.77
2023-01-29T19:31:21.642Z,15.27
2023-01-29T19:33:52.255Z,12.57
2023-01-29T19:36:21.847Z,11.48
2023-01-29T19:38:50.023Z,8.93
2023-01-29T19:41:18.427Z,10.65
2023-01-29T19:43:48.228Z,14.43
2023-01-29T19:46:17.474Z,10.13
2023-01-29T19:48:46.634Z,12.32
2023-01-29T19:51:14.993Z,9.65
2023-01-29T19:53:44.886Z,10.15
2023-01-29T19:56:15.539Z,15.63
2023-01-29T19:58:44.680Z,13.98
2023-01-29T20:01:16.737Z,15.25
2023-01-29T20:03:46.561Z,13.80
2023-01-29T20:06:19.225Z,18.10
2023-01-29T20:08:48.816Z,13.65
2023-01-29T20:11:22.669Z,13.35
2023-01-29T20:13:52.873Z,13.13
2023-01-29T20:16:22.167Z,12.80
2023-01-29T20:18:50.399Z,12.90
2023-01-29T20:21:20.519Z,17.73
2023-01-29T20:23:52.193Z,13.82
2023-01-29T20:26:22.907Z,14.13
2023-01-29T20:28:51.486Z,11.55
2023-01-29T20:31:19.697Z,15.38
2023-01-29T20:33:47.896Z,15.32
2023-01-29T20:36:16.125Z,14.68
2023-01-29T20:38:44.747Z,18.90
2023-01-29T20:41:16.192Z,8.73
2023-01-29T20:43:45.124Z,10.13
2023-01-29T20:46:13.845Z,7.78
2023-01-29T20:48:42.894Z,6.45
2023-01-29T20:51:15.281Z,10.07
2023-01-29T20:53:45.478Z,12.43
2023-01-29T20:56:16.720Z,12.05
2023-01-29T20:58:46.711Z,12.68
2023-01-29T21:01:19.349Z,11.73
2023-01-29T21:03:48.433Z,11.93
2023-01-29T21:06:17.022Z,9.73
2023-01-29T21:08:45.369Z,9.27
2023-01-29T21:11:14.979Z,11.45
2023-01-29T21:13:44.066Z,10.85
2023-01-29T21:16:14.788Z,7.80
2023-01-29T21:18:43.029Z,11.30
2023-01-29T21:21:11.236Z,11.98
2023-01-29T21:23:39.375Z,10.15
2023-01-29T21:26:08.974Z,6.25
2023-01-29T21:28:38.594Z,12.57
2023-01-29T21:31:11.592Z,9.95
2023-01-29T21:33:39.947Z,11.70
2023-01-29T21:36:10.150Z,11.95
2023-01-29T21:38:40.918Z,11.50
2023-01-29T21:41:10.520Z,13.45
2023-01-29T21:43:39.279Z,10.90
2023-01-29T21:46:12.509Z,7.72
2023-01-29T21:48:41.362Z,9.05
2023-01-29T21:51:09.698Z,13.05
2023-01-29T21:53:40.429Z,10.93
2023-01-29T21:56:09.000Z,13.65
2023-01-29T21:58:37.280Z,9.82
2023-01-29T22:01:37.761Z,11.38
2023-01-29T22:04:01.175Z,10.93
2023-01-29T22:06:29.744Z,13.15
2023-01-29T22:08:57.913Z,10.48
2023-01-29T22:11:26.149Z,9.30
2023-01-29T22:13:54.322Z,10.18
2023-01-29T22:16:26.953Z,9.20
2023-01-29T22:18:55.202Z,7.25
2023-01-29T22:21:23.369Z,13.05
2023-01-29T22:23:51.575Z,9.38
2023-01-29T22:26:19.993Z,11.50
2023-01-29T22:28:48.265Z,11.40
2023-01-29T22:31:16.447Z,12.35
2023-01-29T22:33:46.053Z,7.65
2023-01-29T22:36:14.196Z,10.38
2023-01-29T22:38:44.930Z,8.95
2023-01-29T22:41:13.656Z,9.10
2023-01-29T22:43:42.491Z,11.75
2023-01-29T22:46:11.032Z,10.80
2023-01-29T22:48:39.332Z,8.88
2023-01-29T22:51:13.829Z,13.45
2023-01-29T22:53:49.299Z,11.30
2023-01-29T22:56:17.648Z,13.10
2023-01-29T22:58:45.951Z,9.05
2023-01-29T23:01:14.416Z,9.05
2023-01-29T23:03:42.672Z,12.27
2023-01-29T23:06:14.605Z,10.65
2023-01-29T23:08:45.078Z,10.73
2023-01-29T23:11:17.790Z,10.57
2023-01-29T23:13:47.808Z,10.93
2023-01-29T23:16:17.464Z,10.32
2023-01-29T23:18:46.279Z,12.73
2023-01-29T23:21:15.868Z,9.85
2023-01-29T23:23:45.108Z,12.10
2023-01-29T23:26:45.791Z,9.25
2023-01-29T23:29:14.486Z,10.63
2023-01-29T23:31:42.730Z,9.02
2023-01-29T23:34:11.159Z,7.93
2023-01-29T23:36:40.847Z,9.30
2023-01-29T23:39:09.383Z,8.80
2023-01-29T23:41:37.935Z,10.43
2023-01-29T23:44:06.375Z,9.10
2023-01-29T23:46:34.739Z,10.05
2023-01-29T23:49:03.158Z,9.63
2023-01-29T23:51:31.467Z,6.63
2023-01-29T23:54:03.295Z,11.93
2023-01-29T23:56:31.497Z,10.65
2023-01-29T23:59:00.133Z,5.80
